Terminal Aerodrome Forecast
Issued by NWS Caribou, ME

Home | Current Version | Previous Version | Text Only | Print | Product List | Glossary On
Versions: 1 2 3 4 5 6 7 8 9 10 11 12 13 14 15
000
FTUS41 KCAR 061731
TAFBGR
TAF
KBGR 061731Z 0618/0718 VRB03KT P6SM FEW070
     FM070730 VRB03KT P6SM SCT025
     FM070900 VRB03KT P6SM BKN020
     FM071100 18005KT P6SM SCT025
     FM071400 18009KT P6SM FEW040 SCT120=

USA.gov is the U.S. government's official web portal to all federal, state and local government web resources and services.